Time;durP1;ratioP1;P1;durP2;ratioP2;P2;SDS_P1;SDS_P2;PMS_P1;PMS_P2;Temp;Humidity;BMP_temperature;BMP_pressure;BME280_temperature;BME280_humidity;BME280_pressure;Samples;Min_cycle;Max_cycle;Signal;HPM_P1;HPM_P2
2022/04/24 09:01:54;;;;;;;12.32;3.67;;;11.40;99.90;;;10.37;76.60;100539.56;4750019;29;20087;-79
2022/04/24 09:04:20;;;;;;;10.90;3.58;;;11.30;99.90;;;10.24;76.21;100526.13;4746492;29;20046;-78
2022/04/24 09:07:00;;;;;;;12.07;3.88;;;11.30;99.90;;;10.20;76.51;100528.97;4749749;29;20047;-79
2022/04/24 09:09:35;;;;;;;16.30;4.38;;;11.10;99.90;;;9.77;77.23;100533.63;4755527;29;20792;-78
2022/04/24 09:12:29;;;;;;;12.15;4.25;;;11.20;99.90;;;10.11;77.62;100526.75;4748725;29;20054;-79
2022/04/24 09:14:57;;;;;;;16.88;4.53;;;11.20;99.90;;;10.17;76.84;100526.47;4736891;29;20074;-79
2022/04/24 09:17:30;;;;;;;13.65;4.13;;;11.20;99.90;;;10.13;77.37;100527.53;4758521;29;20478;-78
2022/04/24 09:19:57;;;;;;;20.65;5.10;;;11.20;99.90;;;10.09;77.69;100531.28;4758938;29;20085;-78
2022/04/24 09:22:24;;;;;;;17.40;4.25;;;11.10;99.90;;;9.97;77.02;100530.06;4724367;29;20039;-79
2022/04/24 09:25:12;;;;;;;13.88;3.70;;;11.30;99.90;;;10.24;77.08;100526.13;4741258;29;20027;-80
2022/04/24 09:27:41;;;;;;;12.52;4.20;;;11.00;99.90;;;9.79;77.82;100529.16;4759082;29;20035;-79
2022/04/24 09:30:15;;;;;;;14.07;4.63;;;10.70;99.90;;;9.42;79.60;100528.22;4740604;29;20054;-79
2022/04/24 09:32:59;;;;;;;15.50;4.40;;;10.90;99.90;;;9.49;79.60;100532.25;4795406;29;20041;-78
2022/04/24 09:35:32;;;;;;;9.95;3.75;;;10.90;99.90;;;9.83;78.88;100534.19;4879784;28;20046;-79
2022/04/24 09:38:14;;;;;;;13.25;3.08;;;11.10;99.90;;;10.00;78.57;100545.69;4950493;28;20041;-78
2022/04/24 09:40:48;;;;;;;18.85;5.15;;;11.30;99.90;;;10.60;77.96;100530.50;4901055;28;20102;-79
2022/04/24 09:43:19;;;;;;;17.80;5.28;;;11.40;99.90;;;10.50;77.46;100528.44;4918068;28;20034;-79
2022/04/24 09:45:55;;;;;;;13.55;4.28;;;11.20;99.90;;;9.89;77.79;100527.78;4885760;28;20085;-78
2022/04/24 09:48:30;;;;;;;17.65;4.30;;;11.10;99.90;;;9.96;79.48;100537.09;4924358;28;20126;-77
2022/04/24 09:51:02;;;;;;;14.35;4.85;;;11.30;99.90;;;10.30;78.18;100538.13;4906226;28;20051;-79
2022/04/24 09:53:36;;;;;;;18.55;5.35;;;11.30;99.90;;;10.26;77.49;100532.16;4915385;28;20062;-78
2022/04/24 09:56:03;;;;;;;14.07;4.60;;;11.40;99.90;;;10.34;77.72;100528.31;4911080;28;20047;-76
2022/04/24 09:58:34;;;;;;;9.57;3.70;;;11.40;99.90;;;10.06;77.13;100519.09;4890541;28;20106;-79
2022/04/24 10:01:05;;;;;;;16.05;3.50;;;11.30;99.90;;;9.80;76.98;100533.47;4925989;28;20103;-78
2022/04/24 10:03:40;;;;;;;20.38;4.65;;;10.80;99.90;;;9.31;78.50;100533.94;4923283;28;20026;-78
2022/04/24 10:06:10;;;;;;;14.80;4.60;;;10.60;99.90;;;9.50;80.50;100520.81;4908571;28;20030;-78
2022/04/24 10:08:37;;;;;;;16.80;5.03;;;10.50;99.90;;;9.31;81.53;100531.31;4925368;28;20023;-78
2022/04/24 10:11:09;;;;;;;16.02;4.90;;;10.50;99.90;;;9.54;81.33;100527.63;4899851;28;20235;-78
2022/04/24 10:13:44;;;;;;;17.52;4.25;;;10.70;99.90;;;9.75;80.64;100530.22;4881801;28;20571;-78
2022/04/24 10:16:50;;;;;;;10.52;3.38;;;10.60;99.90;;;9.30;81.67;100540.09;4879020;28;25095;-79
2022/04/24 10:20:10;;;;;;;19.13;4.75;;;10.40;99.90;;;9.42;82.10;100528.22;4917235;28;22854;-78
2022/04/24 10:22:47;;;;;;;17.88;5.05;;;10.80;99.90;;;10.19;82.59;100535.16;4926392;28;20138;-78
2022/04/24 10:25:30;;;;;;;14.82;5.00;;;10.90;99.90;;;9.93;80.63;100533.75;4914315;28;20038;-78
2022/04/24 10:28:08;;;;;;;14.10;4.60;;;11.00;99.90;;;9.92;79.96;100540.81;4933191;28;20492;-79
2022/04/24 10:30:41;;;;;;;16.67;5.50;;;11.00;99.90;;;9.93;79.21;100546.91;4922278;28;20042;-78
2022/04/24 10:33:28;;;;;;;16.00;4.53;;;11.10;99.90;;;10.06;78.64;100541.00;4932020;28;20038;-77
2022/04/24 10:36:06;;;;;;;;;;;11.00;99.90;;;9.60;78.87;100535.25;4928202;28;20586;-77
2022/04/24 10:38:57;;;;;;;17.05;4.20;;;10.70;99.90;;;9.24;80.88;100538.63;4909462;28;19913;-78
2022/04/24 10:41:36;;;;;;;17.73;5.35;;;10.50;99.90;;;9.17;81.90;100531.06;4914367;28;20186;-78
2022/04/24 10:44:15;;;;;;;16.13;4.57;;;10.50;99.90;;;9.20;82.96;100534.41;4940203;28;20046;-77
2022/04/24 10:46:42;;;;;;;15.68;4.93;;;10.50;99.90;;;9.43;83.26;100538.63;4941205;28;23868;-77
2022/04/24 10:49:18;;;;;;;20.73;5.30;;;10.50;99.90;;;9.42;82.12;100529.06;4925580;28;20102;-78
2022/04/24 10:52:07;;;;;;;17.10;4.43;;;10.60;99.90;;;9.57;81.53;100537.19;4896890;28;20034;-78
2022/04/24 10:54:44;;;;;;;10.90;4.30;;;10.80;99.90;;;9.63;81.35;100543.00;4927317;28;20019;-78
2022/04/24 10:57:22;;;;;;;16.23;5.30;;;10.80;99.90;;;9.75;81.97;100538.09;4926412;28;20153;-78
2022/04/24 10:59:53;;;;;;;19.08;5.45;;;10.80;99.90;;;9.86;81.79;100543.72;4933869;28;20204;-76
2022/04/24 11:02:33;;;;;;;17.15;4.57;;;11.10;99.90;;;10.02;80.99;100531.56;4913534;28;20019;-79
2022/04/24 11:05:12;;;;;;;7.13;3.65;;;11.00;99.90;;;9.67;81.07;100535.81;4934934;28;20070;-78
2022/04/24 11:07:45;;;;;;;19.20;4.68;;;10.90;99.90;;;9.59;81.60;100538.81;4925882;28;20387;-78
2022/04/24 11:10:20;;;;;;;16.75;5.30;;;10.80;99.90;;;9.70;81.82;100561.09;4916407;28;20583;-77
2022/04/24 11:12:48;;;;;;;12.93;4.07;;;10.80;99.90;;;9.42;81.42;100538.72;4927778;28;20127;-79
2022/04/24 11:15:18;;;;;;;18.10;5.57;;;10.70;99.90;;;9.42;82.52;100544.81;4930178;28;20452;-77
2022/04/24 11:17:46;;;;;;;15.93;4.72;;;10.60;99.90;;;9.31;82.35;100541.81;4934286;28;20027;-77
2022/04/24 11:20:16;;;;;;;20.42;4.90;;;10.60;99.90;;;9.52;82.67;100534.72;4875066;28;20034;-78
2022/04/24 11:22:58;;;;;;;12.32;4.10;;;10.60;99.90;;;8.94;81.47;100543.44;4933309;28;20042;-78
2022/04/24 11:25:28;;;;;;;12.80;4.47;;;10.20;99.90;;;8.85;84.02;100538.53;4929681;28;20094;-77
2022/04/24 11:28:03;;;;;;;13.60;4.00;;;10.10;99.90;;;8.77;84.43;100538.88;4936550;28;20047;-78
2022/04/24 11:30:34;;;;;;;12.23;4.00;;;10.00;99.90;;;8.66;85.57;100537.59;4929858;28;20417;-77
2022/04/24 11:33:05;;;;;;;13.57;3.85;;;10.20;99.90;;;9.03;85.87;100544.81;4903075;28;20027;-78
2022/04/24 11:35:39;;;;;;;13.77;4.43;;;10.20;99.90;;;9.02;86.11;100537.81;4912730;28;20453;-77
2022/04/24 11:38:18;;;;;;;14.25;5.13;;;10.10;99.90;;;9.07;85.81;100535.88;4922677;28;20571;-78
2022/04/24 11:40:47;;;;;;;20.48;5.20;;;10.20;99.90;;;9.11;86.01;100534.78;4898077;28;20042;-77
2022/04/24 11:43:17;;;;;;;18.67;5.03;;;10.40;99.90;;;9.47;84.54;100533.25;4927872;28;20543;-78
2022/04/24 11:51:26;;;;;;;15.63;5.00;;;10.90;99.90;;;9.89;82.54;100543.56;4931099;28;20042;-78
2022/04/24 11:53:54;;;;;;;24.88;6.07;;;10.90;99.90;;;10.00;82.08;100543.94;4922267;28;20034;-78
2022/04/24 11:56:23;;;;;;;19.60;5.50;;;11.10;99.90;;;10.19;81.96;100535.16;4918950;28;20034;-78
2022/04/24 11:59:19;;;;;;;9.60;3.25;;;11.10;99.90;;;9.51;80.94;100538.31;4919747;28;20554;-78
2022/04/24 12:01:59;;;;;;;16.67;4.85;;;11.00;99.90;;;9.66;82.42;100542.00;4936655;28;20475;-79
2022/04/24 12:04:38;;;;;;;13.77;4.65;;;10.80;99.90;;;9.64;82.65;100544.69;4929150;28;20038;-78
2022/04/24 12:07:11;;;;;;;20.02;4.60;;;11.00;99.90;;;9.87;82.03;100542.81;4922625;28;20043;-78
2022/04/24 12:09:38;;;;;;;14.95;5.20;;;11.10;99.90;;;10.15;81.60;100545.00;4929976;28;20642;-78
2022/04/24 12:12:15;;;;;;;19.73;6.05;;;11.00;99.90;;;9.90;81.53;100553.16;4908459;28;20023;-77
2022/04/24 12:14:58;;;;;;;14.63;5.15;;;11.00;99.90;;;9.85;80.99;100547.28;4912686;28;20019;-78
2022/04/24 12:17:24;;;;;;;15.15;4.50;;;10.70;99.90;;;9.30;81.83;100544.50;4860103;28;20054;-80
2022/04/24 12:20:04;;;;;;;17.13;3.78;;;;;;;9.28;83.22;100546.34;4835899;28;20509;-78
2022/04/24 12:22:35;;;;;;;14.75;4.65;;;10.70;99.90;;;9.68;83.45;100541.94;4921812;28;20027;-77
2022/04/24 12:25:18;;;;;;;18.13;4.82;;;10.90;99.90;;;9.89;81.80;100553.22;4916505;28;20176;-78
2022/04/24 12:27:55;;;;;;;16.98;4.65;;;11.00;99.90;;;10.15;81.41;100549.38;4921270;28;20038;-78
2022/04/24 12:30:23;;;;;;;19.23;5.00;;;11.30;99.90;;;10.39;81.06;100553.50;4904623;28;20056;-78
2022/04/24 12:32:49;;;;;;;11.95;4.10;;;11.30;99.90;;;10.03;80.54;100545.56;4942723;28;20028;-78
2022/04/24 12:35:30;;;;;;;15.63;4.78;;;11.30;99.90;;;10.07;79.88;100547.13;4860733;28;20114;-78
2022/04/24 12:37:56;;;;;;;19.33;4.80;;;11.20;99.90;;;9.91;80.35;100541.72;4931230;28;20113;-77
2022/04/24 12:40:22;;;;;;;19.58;4.85;;;11.00;99.90;;;9.72;80.78;100547.00;4940919;28;20031;-78
2022/04/24 12:42:55;;;;;;;18.67;5.18;;;11.10;99.90;;;9.89;81.48;100540.94;4896527;28;20083;-78
2022/04/24 12:45:22;;;;;;;13.13;4.00;;;10.80;99.90;;;9.32;82.17;100553.19;4914010;28;20047;-79
2022/04/24 12:47:48;;;;;;;18.85;5.65;;;10.80;99.90;;;9.58;83.52;100544.97;4906646;28;20046;-77
2022/04/24 12:50:16;;;;;;;16.77;4.88;;;10.80;99.90;;;9.68;82.67;100541.94;4915681;28;20479;-77
2022/04/24 12:52:43;;;;;;;12.60;4.43;;;10.90;99.90;;;9.83;83.01;100555.22;4945291;28;20491;-78
2022/04/24 12:55:10;;;;;;;21.63;5.38;;;11.00;99.90;;;9.80;82.09;100557.13;4903290;28;20053;-78
2022/04/24 12:57:36;;;;;;;24.35;6.07;;;10.90;99.90;;;9.81;82.24;100540.47;4961375;28;20047;-78
2022/04/24 13:00:06;;;;;;;15.18;5.07;;;11.00;99.90;;;9.92;81.59;100532.91;4903933;28;20043;-77
2022/04/24 13:02:37;;;;;;;13.73;4.70;;;11.00;99.90;;;9.78;81.11;100536.19;4925416;28;20054;-78
2022/04/24 13:05:04;;;;;;;18.65;4.72;;;10.80;99.90;;;9.31;80.60;100535.69;4943371;28;20122;-78
2022/04/24 13:07:30;;;;;;;9.75;4.20;;;10.60;99.90;;;9.27;82.42;100536.78;4931324;28;20295;-78
2022/04/24 13:09:57;;;;;;;14.75;5.05;;;10.60;99.90;;;9.29;83.49;100530.53;4943200;28;20046;-78
2022/04/24 13:12:23;;;;;;;15.88;4.93;;;10.50;99.90;;;9.22;83.58;100524.69;4944498;28;20026;-77
2022/04/24 13:14:49;;;;;;;20.17;5.20;;;10.70;99.90;;;9.80;83.85;100528.22;4952864;28;20030;-77
2022/04/24 13:19:59;;;;;;;16.77;5.05;;;11.00;99.90;;;9.69;80.72;100519.97;4919260;28;20033;-78
2022/04/24 13:22:25;;;;;;;13.32;4.40;;;10.90;99.90;;;9.76;81.09;100542.41;4938421;28;20541;-78
2022/04/24 13:24:51;;;;;;;13.77;5.00;;;10.90;99.90;;;9.94;82.11;100541.59;4918700;28;20061;-78
2022/04/24 13:27:16;;;;;;;15.18;4.57;;;11.20;99.90;;;10.11;81.70;100526.75;4944685;28;20100;-78
2022/04/24 13:29:42;;;;;;;13.18;4.43;;;11.30;99.90;;;10.23;80.82;100545.44;4943253;28;20051;-78
2022/04/24 13:32:08;;;;;;;12.20;4.95;;;10.90;99.90;;;9.52;80.79;100529.47;4925241;28;20105;-78
2022/04/24 13:34:35;;;;;;;16.98;4.85;;;11.00;99.90;;;9.73;81.21;100535.53;4930680;28;20743;-78
2022/04/24 13:39:45;;;;;;;12.52;3.80;;;10.80;99.90;;;9.20;80.74;100538.78;4920294;28;20093;-78
2022/04/24 13:42:13;;;;;;;15.05;5.40;;;10.30;99.90;;;8.85;82.61;100535.06;4928026;28;20031;-79
2022/04/24 13:44:39;;;;;;;15.18;4.65;;;10.10;99.90;;;8.51;83.22;100523.34;4934622;28;20023;-78
2022/04/24 13:47:08;;;;;;;14.52;4.88;;;10.10;99.90;;;8.93;84.76;100525.09;4910148;28;20110;-78
2022/04/24 13:49:35;;;;;;;22.98;4.65;;;10.10;99.90;;;8.87;84.96;100536.72;4922319;28;20051;-78
2022/04/24 13:52:04;;;;;;;18.05;5.28;;;10.30;99.90;;;9.25;84.40;100521.06;4955646;28;20503;-78
2022/04/24 13:54:29;;;;;;;12.38;4.95;;;10.50;99.90;;;9.47;83.22;100528.84;4940335;28;20050;-78
2022/04/24 13:56:56;;;;;;;13.02;4.13;;;10.50;99.90;;;9.37;82.08;100530.16;4938386;28;20031;-77
2022/04/24 13:59:26;;;;;;;12.32;4.68;;;10.50;99.90;;;9.29;82.80;100520.03;4915029;28;20034;-78
2022/04/24 14:01:52;;;;;;;17.98;5.43;;;10.60;99.90;;;9.42;82.67;100522.94;4927255;28;20520;-78
2022/04/24 14:04:20;;;;;;;22.35;5.03;;;10.50;99.90;;;9.27;82.60;100515.75;4963168;28;20043;-77
2022/04/24 14:06:46;;;;;;;19.83;5.88;;;10.50;99.90;;;9.22;82.45;100510.69;4929208;28;20042;-78
2022/04/24 14:09:11;;;;;;;14.38;4.88;;;10.40;99.90;;;9.06;82.78;100520.19;4927948;28;20488;-78
2022/04/24 14:11:42;;;;;;;15.65;5.28;;;10.50;99.90;;;9.32;83.53;100501.47;4933941;28;20146;-78
2022/04/24 14:14:08;;;;;;;9.65;4.18;;;10.40;99.90;;;8.98;82.53;100496.84;4889323;28;20659;-79
2022/04/24 14:16:33;;;;;;;23.08;5.43;;;10.20;99.90;;;8.76;83.09;100499.56;4915431;28;20019;-78
2022/04/24 14:18:59;;;;;;;20.10;5.90;;;10.10;99.90;;;8.74;84.71;100504.88;4936552;28;20031;-79
2022/04/24 14:21:25;;;;;;;13.80;4.45;;;9.90;99.90;;;8.55;84.59;100501.31;4906293;28;20768;-78
2022/04/24 14:23:50;;;;;;;10.77;3.78;;;9.90;99.90;;;8.40;84.70;100502.75;4922076;28;20028;-79
2022/04/24 14:26:21;;;;;;;7.78;2.58;;;9.80;99.90;;;8.32;85.28;100495.22;4905980;28;20078;-79
2022/04/24 14:28:47;;;;;;;9.93;3.05;;;9.80;99.90;;;8.41;85.61;100484.38;4922542;28;20034;-78
2022/04/24 14:31:13;;;;;;;14.30;4.32;;;9.80;99.90;;;8.48;84.55;100482.34;4916057;28;20051;-80
2022/04/24 14:33:38;;;;;;;15.23;5.15;;;9.80;99.90;;;8.53;85.02;100479.53;4942827;28;20042;-78
2022/04/24 14:36:04;;;;;;;6.82;3.30;;;9.70;99.90;;;8.18;84.70;100494.94;4931319;28;20107;-78
2022/04/24 14:38:31;;;;;;;15.88;4.63;;;9.60;99.90;;;8.30;86.00;100481.31;4940904;28;20030;-78
2022/04/24 14:40:59;;;;;;;11.32;3.78;;;9.70;99.90;;;8.41;85.85;100487.00;4894244;28;20114;-79
2022/04/24 14:43:25;;;;;;;10.93;4.30;;;9.70;99.90;;;8.43;85.79;100472.97;4928056;28;20065;-79
2022/04/24 14:56:48;;;;;;;22.60;4.70;;;9.90;99.90;;;8.70;84.64;100484.91;4930181;28;20133;-78
2022/04/24 14:59:15;;;;;;;9.18;3.00;;;10.00;99.90;;;8.76;83.22;100461.03;4916462;28;20031;-78
2022/04/24 15:01:40;;;;;;;13.98;4.30;;;9.80;99.90;;;8.40;82.80;100477.44;4891954;28;20038;-78
2022/04/24 15:04:07;;;;;;;15.63;4.43;;;9.80;99.90;;;8.40;84.16;100484.41;4924652;28;20033;-77
2022/04/24 15:06:35;;;;;;;17.52;5.22;;;9.60;99.90;;;8.27;84.28;100470.97;4918226;28;20500;-77
2022/04/24 15:09:01;;;;;;;14.52;3.70;;;9.60;99.90;;;8.11;84.54;100462.00;4894336;28;20045;-78
2022/04/24 15:11:27;;;;;;;14.40;3.97;;;9.50;99.90;;;7.94;84.86;100466.16;4908911;28;20109;-77
2022/04/24 15:13:53;;;;;;;15.75;5.13;;;9.40;99.90;;;8.06;85.78;100471.84;4913979;28;20072;-78
2022/04/24 15:16:19;;;;;;;21.27;5.82;;;9.50;99.90;;;8.23;86.06;100458.88;4917191;28;20031;-77
2022/04/24 15:18:47;;;;;;;15.02;4.32;;;9.60;99.90;;;8.43;85.92;100468.59;4939873;28;20502;-78
2022/04/24 15:21:17;;;;;;;20.65;4.93;;;9.70;99.90;;;8.58;85.32;100464.47;4922639;28;20395;-78
2022/04/24 15:23:49;;;;;;;13.63;3.63;;;9.60;99.90;;;8.30;84.17;100462.94;4928758;28;20032;-78
2022/04/24 15:26:16;;;;;;;14.88;3.80;;;9.50;99.90;;;8.04;84.41;100477.13;4912839;28;20774;-78
2022/04/24 15:28:42;;;;;;;14.73;4.25;;;9.40;99.90;;;7.98;85.42;100467.72;4932102;28;20027;-77
2022/04/24 15:31:08;;;;;;;17.88;5.28;;;9.40;99.90;;;8.13;85.56;100484.63;4930642;28;20060;-77
2022/04/24 15:33:35;;;;;;;16.92;4.05;;;9.30;99.90;;;7.97;85.97;100460.78;4919660;28;20116;-77
2022/04/24 15:36:03;;;;;;;10.82;3.33;;;9.40;99.90;;;7.89;86.26;100462.84;4904757;28;20081;-77
2022/04/24 15:38:29;;;;;;;13.75;3.70;;;9.20;99.90;;;7.85;86.47;100463.91;4929019;28;20031;-77
2022/04/24 15:40:55;;;;;;;11.10;3.88;;;9.20;99.90;;;7.79;86.70;100469.38;4944656;28;20057;-78
2022/04/24 15:43:21;;;;;;;10.15;2.95;;;9.10;99.90;;;7.63;87.01;100470.91;4908243;28;20031;-77
2022/04/24 15:45:49;;;;;;;14.75;3.88;;;9.10;99.90;;;7.63;87.77;100476.13;4927962;28;20050;-78
2022/04/24 15:48:15;;;;;;;12.00;3.58;;;9.20;99.90;;;7.82;87.52;100492.88;4954237;28;20035;-77
2022/04/24 15:50:41;;;;;;;10.65;3.53;;;9.10;99.90;;;7.64;87.27;100483.06;4950823;28;20081;-77
2022/04/24 15:53:06;;;;;;;10.30;3.45;;;8.80;99.90;;;7.20;87.81;100496.91;4899369;28;20102;-78
2022/04/24 15:55:32;;;;;;;13.25;3.38;;;8.60;99.90;;;7.11;89.57;100485.03;4913687;28;20031;-77
2022/04/24 15:58:02;;;;;;;10.63;3.45;;;8.60;99.90;;;7.05;90.19;100490.47;4923626;28;20454;-77
2022/04/24 16:00:30;;;;;;;12.68;4.07;;;8.60;99.90;;;7.08;90.75;100490.34;4905549;28;20388;-77
2022/04/24 16:02:56;;;;;;;9.80;3.60;;;8.50;99.90;;;7.11;90.80;100477.16;4899879;28;20050;-79
2022/04/24 16:05:26;;;;;;;13.60;3.70;;;8.40;99.90;;;6.92;91.29;100483.97;4932054;28;20036;-77
2022/04/24 16:07:55;;;;;;;11.82;3.63;;;8.40;99.90;;;6.93;91.85;100485.66;4903228;28;20103;-77
2022/04/24 16:10:22;;;;;;;12.77;3.50;;;8.40;99.90;;;6.92;91.74;100476.13;4890568;28;20535;-78
2022/04/24 16:12:48;;;;;;;11.93;3.53;;;8.20;99.90;;;6.73;91.42;100486.38;4945964;28;20035;-79
2022/04/24 16:15:14;;;;;;;10.48;2.65;;;8.10;99.90;;;6.51;92.49;100479.25;4983375;28;20050;-77
2022/04/24 16:17:40;;;;;;;11.80;4.28;;;8.00;99.90;;;6.47;92.87;100479.41;4925274;28;20137;-77
2022/04/24 16:20:08;;;;;;;13.85;4.07;;;8.00;99.90;;;6.60;93.16;100478.06;4892750;28;20031;-77
2022/04/24 16:22:38;;;;;;;13.52;2.85;;;7.90;99.90;;;6.32;93.71;100481.63;4871799;28;20046;-77
2022/04/24 16:25:05;;;;;;;40.10;4.10;;;7.70;99.90;;;6.15;94.73;100482.19;4909865;28;20027;-77
2022/04/24 16:27:30;;;;;;;7.75;3.00;;;7.70;99.90;;;6.12;95.24;100497.09;4888524;28;20039;-78
2022/04/24 16:29:56;;;;;;;14.48;3.03;;;7.60;99.90;;;6.06;96.54;100481.63;4943703;28;20562;-77
2022/04/24 16:32:30;;;;;;;12.00;3.67;;;7.60;99.90;;;6.22;96.44;100464.53;4949596;28;20036;-77
2022/04/24 16:34:59;;;;;;;10.60;2.60;;;7.70;99.90;;;6.24;97.01;100475.81;4909174;28;20069;-77
2022/04/24 16:37:28;;;;;;;11.02;2.90;;;7.80;99.90;;;6.30;97.43;100470.34;4923037;28;20043;-77
2022/04/24 16:39:56;;;;;;;10.82;3.25;;;7.60;99.90;;;6.03;97.29;100479.09;4905807;28;20039;-77
2022/04/24 16:42:22;;;;;;;16.13;4.18;;;7.60;99.90;;;6.15;98.45;100478.69;4897296;28;20047;-77
2022/04/24 16:44:49;;;;;;;19.38;3.50;;;7.60;99.90;;;5.99;98.92;100478.34;4913774;28;20150;-78
2022/04/24 16:47:15;;;;;;;17.63;5.18;;;7.50;99.90;;;5.82;100.00;100484.06;4907289;28;20046;-77
2022/04/24 16:49:41;;;;;;;17.58;3.83;;;7.30;99.90;;;5.64;100.00;100474.19;4911714;28;20046;-78
2022/04/24 17:00:24;;;;;;;19.40;4.50;;;7.10;99.90;;;5.54;100.00;100478.81;4902930;28;20094;-77
2022/04/24 17:02:50;;;;;;;24.80;5.38;;;7.10;99.90;;;5.57;100.00;100475.25;4931420;28;20089;-77
2022/04/24 17:05:17;;;;;;;20.58;5.43;;;7.00;99.90;;;5.44;100.00;100478.25;4943558;28;20072;-77
2022/04/24 17:07:42;;;;;;;12.95;3.88;;;7.00;99.90;;;5.39;100.00;100480.13;4936393;23;20081;-77
2022/04/24 17:10:09;;;;;;;19.63;5.80;;;7.00;99.90;;;5.42;100.00;100493.09;4903266;28;20383;-78
2022/04/24 17:12:35;;;;;;;17.63;5.10;;;7.00;99.90;;;5.41;100.00;100495.75;4943961;28;20034;-77
2022/04/24 17:15:01;;;;;;;16.58;4.65;;;6.90;99.90;;;5.33;100.00;100495.94;4914540;28;20039;-77
2022/04/24 17:17:27;;;;;;;21.77;5.22;;;6.90;99.90;;;5.33;100.00;100503.78;4913170;28;20491;-76
2022/04/24 17:19:59;;;;;;;19.92;4.60;;;6.90;99.90;;;5.23;100.00;100504.97;4923620;28;20037;-77
2022/04/24 17:22:24;;;;;;;19.48;5.18;;;6.90;99.90;;;5.25;100.00;100521.44;4918071;28;20038;-78
2022/04/24 17:24:50;;;;;;;20.00;5.18;;;6.80;99.90;;;5.15;100.00;100502.56;4964696;28;20487;-77
2022/04/24 17:27:16;;;;;;;22.55;5.35;;;6.70;99.90;;;5.19;100.00;100513.78;4949500;28;20031;-77
2022/04/24 17:29:45;;;;;;;14.65;3.50;;;6.70;99.90;;;5.04;100.00;100509.81;4931690;28;20042;-78
2022/04/24 17:32:17;;;;;;;15.32;3.92;;;6.60;99.90;;;5.06;100.00;100521.94;4954814;28;20026;-77
2022/04/24 17:34:43;;;;;;;11.50;4.22;;;6.60;99.90;;;5.01;100.00;100502.06;4946043;28;20868;-77
2022/04/24 17:37:11;;;;;;;19.67;3.67;;;6.60;99.90;;;5.00;100.00;100509.03;4907407;28;20078;-76
2022/04/24 17:39:38;;;;;;;22.13;3.53;;;6.60;99.90;;;5.02;100.00;100514.22;4954857;28;20506;-77
2022/04/24 17:42:04;;;;;;;16.27;4.20;;;6.60;99.90;;;5.03;100.00;100497.66;4967663;28;20030;-78
2022/04/24 17:44:34;;;;;;;19.73;3.85;;;6.60;99.90;;;5.08;100.00;100516.69;4924841;28;20009;-77
2022/04/24 17:47:02;;;;;;;18.17;4.47;;;6.50;99.90;;;4.95;100.00;100529.19;4962633;28;20343;-77
2022/04/24 17:49:31;;;;;;;12.75;4.30;;;6.50;99.90;;;4.83;100.00;100512.09;4984603;28;20045;-78
2022/04/24 17:51:57;;;;;;;21.45;4.75;;;6.40;99.90;;;4.83;100.00;100519.94;4937442;28;20030;-77
2022/04/24 17:54:23;;;;;;;14.73;3.78;;;6.50;99.90;;;4.88;100.00;100532.84;4959679;28;20384;-77
2022/04/24 17:56:49;;;;;;;17.15;4.80;;;6.40;99.90;;;4.93;100.00;100528.38;4934194;28;20021;-78
2022/04/24 17:59:18;;;;;;;16.33;4.53;;;6.50;99.90;;;4.94;100.00;100527.47;4942360;28;20019;-79
2022/04/24 18:01:49;;;;;;;17.50;4.57;;;6.50;99.90;;;4.96;100.00;100530.06;4953659;28;20438;-77
2022/04/24 18:04:15;;;;;;;19.85;4.03;;;6.50;99.90;;;4.86;100.00;100524.19;4955600;28;20035;-77
2022/04/24 18:06:41;;;;;;;19.88;3.95;;;6.40;99.90;;;4.83;100.00;100542.56;4948210;28;20035;-77
2022/04/24 18:09:07;;;;;;;16.85;3.45;;;6.40;99.90;;;4.75;100.00;100528.84;4950877;28;20057;-77
2022/04/24 18:11:33;;;;;;;15.77;3.97;;;6.40;99.90;;;4.79;100.00;100530.47;4959739;28;20041;-79
2022/04/24 18:14:00;;;;;;;15.27;3.75;;;6.30;99.90;;;4.76;100.00;100535.78;4955833;28;20399;-78
2022/04/24 18:16:27;;;;;;;17.48;4.35;;;6.40;99.90;;;4.84;100.00;100552.13;4957833;28;20036;-77
2022/04/24 18:18:56;;;;;;;15.32;3.95;;;6.30;99.90;;;4.77;100.00;100558.34;4937339;28;20039;-77
2022/04/24 18:21:26;;;;;;;13.93;3.72;;;6.30;99.90;;;4.78;100.00;100566.16;4931962;28;21411;-77
2022/04/24 18:24:00;;;;;;;18.50;3.00;;;6.30;99.90;;;4.69;100.00;100590.72;4958242;28;20061;-78
2022/04/24 18:26:25;;;;;;;20.40;4.50;;;6.20;99.90;;;4.71;100.00;100570.66;4956287;23;20052;-77
2022/04/24 18:28:52;;;;;;;16.80;4.15;;;6.30;99.90;;;4.76;100.00;100577.53;4948805;28;20042;-77
2022/04/24 18:31:19;;;;;;;18.00;4.63;;;6.30;99.90;;;4.84;100.00;100575.59;4954250;28;20401;-77
2022/04/24 18:33:54;;;;;;;16.77;4.30;;;6.30;99.90;;;4.73;100.00;100592.38;4949158;28;20029;-77
2022/04/24 18:39:05;;;;;;;10.55;2.72;;;6.30;99.90;;;4.65;100.00;100596.06;4930683;28;20329;-80
2022/04/24 18:41:34;;;;;;;13.63;3.60;;;6.20;99.90;;;4.65;100.00;100593.44;4942384;28;20838;-79
2022/04/24 18:44:00;;;;;;;13.30;3.75;;;6.20;99.90;;;4.69;100.00;100601.16;4934456;28;21946;-77
2022/04/24 18:46:26;;;;;;;14.07;3.38;;;6.20;99.90;;;4.68;100.00;100615.06;4973300;28;20065;-78
2022/04/24 18:48:52;;;;;;;15.88;3.45;;;6.20;99.90;;;4.68;100.00;100604.63;4946416;28;20053;-78
2022/04/24 18:51:19;;;;;;;11.07;3.25;;;6.30;99.90;;;4.69;100.00;100608.97;4974167;28;20433;-78
2022/04/24 18:53:51;;;;;;;16.20;4.20;;;6.20;99.90;;;4.68;100.00;100611.63;4899659;28;20030;-78
2022/04/24 18:56:16;;;;;;;15.90;4.25;;;6.20;99.90;;;4.73;100.00;100600.19;4965577;28;20033;-77
2022/04/24 18:58:42;;;;;;;11.13;3.55;;;6.30;99.90;;;4.72;100.00;100611.50;4922906;28;20030;-77
2022/04/24 19:01:11;;;;;;;15.23;5.15;;;6.30;99.90;;;4.77;100.00;100611.38;4964281;28;20066;-78
2022/04/24 19:03:41;;;;;;;18.90;3.97;;;6.30;99.90;;;4.78;100.00;100607.03;4917167;28;20037;-78
2022/04/24 19:08:54;;;;;;;16.20;3.45;;;6.40;99.90;;;4.79;100.00;100599.16;4943304;28;20072;-78
2022/04/24 19:11:25;;;;;;;17.83;3.75;;;6.30;99.90;;;4.74;100.00;100611.47;4914667;28;20116;-77
2022/04/24 19:13:51;;;;;;;21.55;4.43;;;6.30;99.90;;;4.77;100.00;100592.28;4972395;28;20037;-78
2022/04/24 19:16:22;;;;;;;17.95;4.47;;;6.30;99.90;;;4.77;100.00;100605.31;4922927;28;20862;-77
2022/04/24 19:18:53;;;;;;;18.83;4.10;;;6.40;99.90;;;4.78;100.00;100627.91;4966404;28;20041;-78
2022/04/24 19:21:21;;;;;;;13.02;2.85;;;6.30;99.90;;;4.62;100.00;100599.59;4980186;28;20033;-77
2022/04/24 19:23:47;;;;;;;13.25;3.05;;;6.10;99.90;;;4.54;100.00;100600.69;4941353;28;20058;-77
2022/04/24 19:26:13;;;;;;;16.90;2.45;;;6.10;99.90;;;4.50;100.00;100611.16;4948135;28;20060;-78
2022/04/24 19:28:44;;;;;;;17.92;4.35;;;6.10;99.90;;;4.57;100.00;100603.19;4966583;28;20033;-79
2022/04/24 19:31:15;;;;;;;18.60;2.60;;;6.10;99.90;;;4.61;100.00;100610.06;4924526;28;20219;-78
2022/04/24 19:33:44;;;;;;;12.60;3.03;;;6.20;99.90;;;4.63;100.00;100611.72;4940009;28;20030;-77
2022/04/24 19:36:13;;;;;;;20.92;3.83;;;6.10;99.90;;;4.62;100.00;100607.41;4920460;28;20046;-77
2022/04/24 19:38:39;;;;;;;18.00;4.28;;;6.20;99.90;;;4.61;100.00;100610.06;4914430;28;20034;-77
2022/04/24 19:41:05;;;;;;;14.93;3.85;;;6.20;99.90;;;4.68;100.00;100615.06;4963328;28;20109;-77
2022/04/24 19:43:34;;;;;;;12.98;3.72;;;6.20;99.90;;;4.71;100.00;100611.56;4927604;28;20081;-77
2022/04/24 19:46:03;;;;;;;12.80;3.15;;;6.30;99.90;;;4.75;100.00;100620.16;4962886;28;24115;-78
2022/04/24 19:51:28;;;;;;;15.90;3.33;;;6.20;99.90;;;4.63;100.00;100618.69;4927920;28;20121;-77
2022/04/24 19:53:55;;;;;;;9.68;3.20;;;6.20;99.90;;;4.65;100.00;100622.97;4935912;28;20034;-78
2022/04/24 19:56:24;;;;;;;10.73;2.53;;;6.20;99.90;;;4.60;100.00;100619.63;4954147;28;20531;-77
2022/04/24 19:58:53;;;;;;;11.45;2.80;;;6.20;99.90;;;4.62;100.00;100610.03;4911366;28;20030;-77
2022/04/24 20:01:22;;;;;;;21.73;3.55;;;6.20;99.90;;;4.66;100.00;100616.84;4939076;28;20052;-77
2022/04/24 20:03:47;;;;;;;12.77;4.18;;;6.20;99.90;;;4.69;100.00;100629.00;4931430;28;20029;-78
2022/04/24 20:06:19;;;;;;;13.23;3.95;;;6.20;99.90;;;4.59;100.00;100606.63;4963527;28;20061;-78